Omskiy-107 — UBWE3 — position and weather

sailwx.info

Track history (hours):
 
Tides and Currents Weather Stations Pressure Air Temp Water Temp Dewpoint Dewpoint Depression Visibility Wind Speed Wind Dir Waves Ship Positions

Omskiy-107

Last reported at 2014-Dec-18 21:33 UTC. Time now 2014-Dec-18 21:40 UTC.
Position N 44°34' E 035°01'.

Length 108 m; draft 1.6 m.

Type: Cargo ship. MMSI: 273343220.

Date/timePositionNaut miles runAvg speedWind from/ knotsBaromVisibWave heightAir tempDewpointWater temp
2014-Dec-18 21:33N 44°34' E 035°01'8 7.9
2014-Dec-18 20:33N 44°31' E 034°51'8 7.8
2014-Dec-18 19:34N 44°28' E 034°41'8 8.0
2014-Dec-18 18:33N 44°24' E 034°31'6 5.6
2014-Dec-18 17:34N 44°22' E 034°24'16 6.9
2014-Dec-18 15:13N 44°16' E 034°03'296 8.5
2014-Dec-17 04:23N 41°01' E 029°00'6 7.7
2014-Dec-17 03:32N 40°55' E 028°58'9 7.9
2014-Dec-17 02:23N 40°49' E 028°49'1 0.7
2014-Dec-17 01:26N 40°49' E 028°50'0 0.3
2014-Dec-17 00:30N 40°49' E 028°50'0 0.2
2014-Dec-16 23:13N 40°49' E 028°50'1 1.7
2014-Dec-16 22:31N 40°49' E 028°52'1 1.0
2014-Dec-16 21:33N 40°49' E 028°53'0 0.2
2014-Dec-16 20:33N 40°49' E 028°53'1 1.0
2014-Dec-16 19:19N 40°50' E 028°52'1 0.9
2014-Dec-16 18:26N 40°50' E 028°53'0 0.4
2014-Dec-16 17:31N 40°50' E 028°54'0 0.2
2014-Dec-16 16:27N 40°50' E 028°54'1 0.6
2014-Dec-16 15:18N 40°50' E 028°53'  
2014-Dec-09 16:31N 44°16' E 034°03'8 8.7
2014-Dec-09 15:33N 44°19' E 034°14'10 9.9
2014-Dec-09 14:33N 44°23' E 034°26'10 9.9
2014-Dec-09 13:33N 44°27' E 034°39'10 9.6
2014-Dec-09 12:33N 44°31' E 034°51'10 9.4
2014-Dec-09 11:33N 44°35' E 035°04'10 9.5
2014-Dec-09 10:29N 44°39' E 035°17'8 9.2
2014-Dec-09 09:33N 44°42' E 035°28'29 8.8
2014-Dec-09 06:17N 44°53' E 036°05'  
Track history (hours):
 
Tides and Currents Weather Stations Pressure Air Temp Water Temp Dewpoint Dewpoint Depression Visibility Wind Speed Wind Dir Waves Ship Positions

Omskiy-107

Last reported at 2014-Dec-18 21:33 UTC. Time now 2014-Dec-18 21:40 UTC.
Position N 44°34' E 035°01'.

Length 108 m; draft 1.6 m.

Type: Cargo ship. MMSI: 273343220.

Date/timePositionNaut miles runAvg speedWind from/ knotsBaromVisibWave heightAir tempDewpointWater temp
2014-Dec-18 21:33N 44°34' E 035°01'8 7.9
2014-Dec-18 20:33N 44°31' E 034°51'8 7.8
2014-Dec-18 19:34N 44°28' E 034°41'8 8.0
2014-Dec-18 18:33N 44°24' E 034°31'6 5.6
2014-Dec-18 17:34N 44°22' E 034°24'16 6.9
2014-Dec-18 15:13N 44°16' E 034°03'296 8.5
2014-Dec-17 04:23N 41°01' E 029°00'6 7.7
2014-Dec-17 03:32N 40°55' E 028°58'9 7.9
2014-Dec-17 02:23N 40°49' E 028°49'1 0.7
2014-Dec-17 01:26N 40°49' E 028°50'0 0.3
2014-Dec-17 00:30N 40°49' E 028°50'0 0.2
2014-Dec-16 23:13N 40°49' E 028°50'1 1.7
2014-Dec-16 22:31N 40°49' E 028°52'1 1.0
2014-Dec-16 21:33N 40°49' E 028°53'0 0.2
2014-Dec-16 20:33N 40°49' E 028°53'1 1.0
2014-Dec-16 19:19N 40°50' E 028°52'1 0.9
2014-Dec-16 18:26N 40°50' E 028°53'0 0.4
2014-Dec-16 17:31N 40°50' E 028°54'0 0.2
2014-Dec-16 16:27N 40°50' E 028°54'1 0.6
2014-Dec-16 15:18N 40°50' E 028°53'  
2014-Dec-09 16:31N 44°16' E 034°03'8 8.7
2014-Dec-09 15:33N 44°19' E 034°14'10 9.9
2014-Dec-09 14:33N 44°23' E 034°26'10 9.9
2014-Dec-09 13:33N 44°27' E 034°39'10 9.6
2014-Dec-09 12:33N 44°31' E 034°51'10 9.4
2014-Dec-09 11:33N 44°35' E 035°04'10 9.5
2014-Dec-09 10:29N 44°39' E 035°17'8 9.2
2014-Dec-09 09:33N 44°42' E 035°28'29 8.8
2014-Dec-09 06:17N 44°53' E 036°05'  

Dump ship's entire track history